sensor_id;sensor_type;location;lat;lon;timestamp;temperature;humidity
20364;DHT22;10340;53.664;9.908;2022-07-23T00:00:16;17.30;99.90
20364;DHT22;10340;53.664;9.908;2022-07-23T00:02:43;17.30;99.90
20364;DHT22;10340;53.664;9.908;2022-07-23T00:05:10;17.30;99.90
20364;DHT22;10340;53.664;9.908;2022-07-23T00:07:37;17.30;99.90
20364;DHT22;10340;53.664;9.908;2022-07-23T00:10:04;17.20;99.90
20364;DHT22;10340;53.664;9.908;2022-07-23T00:12:33;17.20;99.90
20364;DHT22;10340;53.664;9.908;2022-07-23T00:15:00;17.20;99.90
20364;DHT22;10340;53.664;9.908;2022-07-23T00:17:27;17.20;99.90
20364;DHT22;10340;53.664;9.908;2022-07-23T00:19:54;17.20;99.90
20364;DHT22;10340;53.664;9.908;2022-07-23T00:22:21;17.10;99.90
20364;DHT22;10340;53.664;9.908;2022-07-23T00:24:48;17.10;99.90
20364;DHT22;10340;53.664;9.908;2022-07-23T00:27:15;17.10;99.90
20364;DHT22;10340;53.664;9.908;2022-07-23T00:29:43;17.10;99.90
20364;DHT22;10340;53.664;9.908;2022-07-23T00:32:10;17.20;99.90
20364;DHT22;10340;53.664;9.908;2022-07-23T00:34:37;17.20;99.90
20364;DHT22;10340;53.664;9.908;2022-07-23T00:37:04;17.20;99.90
20364;DHT22;10340;53.664;9.908;2022-07-23T00:39:31;17.20;99.90
20364;DHT22;10340;53.664;9.908;2022-07-23T00:41:57;17.10;99.90
20364;DHT22;10340;53.664;9.908;2022-07-23T00:44:26;17.00;99.90
20364;DHT22;10340;53.664;9.908;2022-07-23T00:46:57;17.00;99.90
20364;DHT22;10340;53.664;9.908;2022-07-23T00:49:25;17.00;99.90
20364;DHT22;10340;53.664;9.908;2022-07-23T00:51:53;16.90;99.90
20364;DHT22;10340;53.664;9.908;2022-07-23T00:54:22;16.80;99.90
20364;DHT22;10340;53.664;9.908;2022-07-23T00:56:49;16.70;99.90
20364;DHT22;10340;53.664;9.908;2022-07-23T00:59:16;16.70;99.90
20364;DHT22;10340;53.664;9.908;2022-07-23T01:01:43;16.70;99.90
20364;DHT22;10340;53.664;9.908;2022-07-23T01:04:15;16.70;99.90
20364;DHT22;10340;53.664;9.908;2022-07-23T01:06:43;16.70;99.90
20364;DHT22;10340;53.664;9.908;2022-07-23T01:09:10;16.70;99.90
20364;DHT22;10340;53.664;9.908;2022-07-23T01:11:37;16.60;99.90
20364;DHT22;10340;53.664;9.908;2022-07-23T01:14:09;16.60;99.90
20364;DHT22;10340;53.664;9.908;2022-07-23T01:16:36;16.60;99.90
20364;DHT22;10340;53.664;9.908;2022-07-23T01:19:03;16.60;99.90
20364;DHT22;10340;53.664;9.908;2022-07-23T01:21:35;16.60;99.90
20364;DHT22;10340;53.664;9.908;2022-07-23T01:24:04;16.50;99.90
20364;DHT22;10340;53.664;9.908;2022-07-23T01:26:31;16.50;99.90
20364;DHT22;10340;53.664;9.908;2022-07-23T01:28:59;16.50;99.90
20364;DHT22;10340;53.664;9.908;2022-07-23T01:31:26;16.40;99.90
20364;DHT22;10340;53.664;9.908;2022-07-23T01:33:53;16.40;99.90
20364;DHT22;10340;53.664;9.908;2022-07-23T01:36:20;16.40;99.90
20364;DHT22;10340;53.664;9.908;2022-07-23T01:38:47;16.40;99.90
20364;DHT22;10340;53.664;9.908;2022-07-23T01:41:15;16.40;99.90
20364;DHT22;10340;53.664;9.908;2022-07-23T01:43:42;16.30;99.90
20364;DHT22;10340;53.664;9.908;2022-07-23T01:46:09;16.40;99.90
20364;DHT22;10340;53.664;9.908;2022-07-23T01:48:36;16.40;99.90
20364;DHT22;10340;53.664;9.908;2022-07-23T01:51:03;16.40;99.90
20364;DHT22;10340;53.664;9.908;2022-07-23T01:53:30;16.50;99.90
20364;DHT22;10340;53.664;9.908;2022-07-23T01:55:57;16.50;99.90
20364;DHT22;10340;53.664;9.908;2022-07-23T01:58:26;16.60;99.90
20364;DHT22;10340;53.664;9.908;2022-07-23T02:00:53;16.60;99.90
20364;DHT22;10340;53.664;9.908;2022-07-23T02:03:20;16.60;99.90
20364;DHT22;10340;53.664;9.908;2022-07-23T02:05:47;16.50;99.90
20364;DHT22;10340;53.664;9.908;2022-07-23T02:08:14;16.50;99.90
20364;DHT22;10340;53.664;9.908;2022-07-23T02:10:41;16.50;99.90
20364;DHT22;10340;53.664;9.908;2022-07-23T02:13:08;16.50;99.90
20364;DHT22;10340;53.664;9.908;2022-07-23T02:15:36;16.50;99.90
20364;DHT22;10340;53.664;9.908;2022-07-23T02:18:04;16.50;99.90
20364;DHT22;10340;53.664;9.908;2022-07-23T02:20:31;16.50;99.90
20364;DHT22;10340;53.664;9.908;2022-07-23T02:22:58;16.40;99.90
20364;DHT22;10340;53.664;9.908;2022-07-23T02:25:25;16.50;99.90
20364;DHT22;10340;53.664;9.908;2022-07-23T02:27:52;16.40;99.90
20364;DHT22;10340;53.664;9.908;2022-07-23T02:30:18;16.40;99.90
20364;DHT22;10340;53.664;9.908;2022-07-23T02:32:47;16.40;99.90
20364;DHT22;10340;53.664;9.908;2022-07-23T02:35:13;16.40;99.90
20364;DHT22;10340;53.664;9.908;2022-07-23T02:37:40;16.50;99.90
20364;DHT22;10340;53.664;9.908;2022-07-23T02:40:08;16.50;99.90
20364;DHT22;10340;53.664;9.908;2022-07-23T02:42:35;16.60;99.90
20364;DHT22;10340;53.664;9.908;2022-07-23T02:45:02;16.70;99.90
20364;DHT22;10340;53.664;9.908;2022-07-23T02:47:29;16.70;99.90
20364;DHT22;10340;53.664;9.908;2022-07-23T02:49:58;16.70;99.90
20364;DHT22;10340;53.664;9.908;2022-07-23T02:52:25;16.70;99.90
20364;DHT22;10340;53.664;9.908;2022-07-23T02:54:52;16.70;99.90
20364;DHT22;10340;53.664;9.908;2022-07-23T02:57:19;16.70;99.90
20364;DHT22;10340;53.664;9.908;2022-07-23T02:59:46;16.70;99.90
20364;DHT22;10340;53.664;9.908;2022-07-23T03:02:13;16.70;99.90
20364;DHT22;10340;53.664;9.908;2022-07-23T03:04:40;16.70;99.90
20364;DHT22;10340;53.664;9.908;2022-07-23T03:07:09;16.60;99.90
20364;DHT22;10340;53.664;9.908;2022-07-23T03:09:36;16.60;99.90
20364;DHT22;10340;53.664;9.908;2022-07-23T03:12:03;16.50;99.90
20364;DHT22;10340;53.664;9.908;2022-07-23T03:14:30;16.60;99.90
20364;DHT22;10340;53.664;9.908;2022-07-23T03:16:57;16.50;99.90
20364;DHT22;10340;53.664;9.908;2022-07-23T03:19:25;16.50;99.90
20364;DHT22;10340;53.664;9.908;2022-07-23T03:21:52;16.50;99.90
20364;DHT22;10340;53.664;9.908;2022-07-23T03:24:20;16.50;99.90
20364;DHT22;10340;53.664;9.908;2022-07-23T03:26:49;16.50;99.90
20364;DHT22;10340;53.664;9.908;2022-07-23T03:29:16;16.50;99.90
20364;DHT22;10340;53.664;9.908;2022-07-23T03:31:43;16.50;99.90
20364;DHT22;10340;53.664;9.908;2022-07-23T03:34:10;16.50;99.90
20364;DHT22;10340;53.664;9.908;2022-07-23T03:36:37;16.60;99.90
20364;DHT22;10340;53.664;9.908;2022-07-23T03:39:04;16.50;99.90
20364;DHT22;10340;53.664;9.908;2022-07-23T03:41:32;16.50;99.90
20364;DHT22;10340;53.664;9.908;2022-07-23T03:43:59;16.40;99.90
20364;DHT22;10340;53.664;9.908;2022-07-23T03:46:26;16.40;99.90
20364;DHT22;10340;53.664;9.908;2022-07-23T03:48:53;16.30;99.90
20364;DHT22;10340;53.664;9.908;2022-07-23T03:51:19;16.20;99.90
20364;DHT22;10340;53.664;9.908;2022-07-23T03:53:46;16.20;99.90
20364;DHT22;10340;53.664;9.908;2022-07-23T03:56:14;16.10;99.90
20364;DHT22;10340;53.664;9.908;2022-07-23T03:58:42;16.20;99.90
20364;DHT22;10340;53.664;9.908;2022-07-23T04:01:10;16.10;99.90
20364;DHT22;10340;53.664;9.908;2022-07-23T04:03:37;16.10;99.90
20364;DHT22;10340;53.664;9.908;2022-07-23T04:06:05;16.20;99.90
20364;DHT22;10340;53.664;9.908;2022-07-23T04:08:32;16.30;99.90
20364;DHT22;10340;53.664;9.908;2022-07-23T04:10:59;16.40;99.90
20364;DHT22;10340;53.664;9.908;2022-07-23T04:13:26;16.50;99.90
20364;DHT22;10340;53.664;9.908;2022-07-23T04:15:55;16.60;99.90
20364;DHT22;10340;53.664;9.908;2022-07-23T04:18:21;16.70;99.90
20364;DHT22;10340;53.664;9.908;2022-07-23T04:20:50;16.70;99.90
20364;DHT22;10340;53.664;9.908;2022-07-23T04:23:17;16.80;99.90
20364;DHT22;10340;53.664;9.908;2022-07-23T04:25:44;16.80;99.90
20364;DHT22;10340;53.664;9.908;2022-07-23T04:28:11;16.70;99.90
20364;DHT22;10340;53.664;9.908;2022-07-23T04:30:38;16.70;99.90
20364;DHT22;10340;53.664;9.908;2022-07-23T04:33:06;16.70;99.90
20364;DHT22;10340;53.664;9.908;2022-07-23T04:35:34;16.70;99.90
20364;DHT22;10340;53.664;9.908;2022-07-23T04:38:01;16.60;99.90
20364;DHT22;10340;53.664;9.908;2022-07-23T04:40:28;16.50;99.90
20364;DHT22;10340;53.664;9.908;2022-07-23T04:42:55;16.40;99.90
20364;DHT22;10340;53.664;9.908;2022-07-23T04:45:23;16.30;99.90
20364;DHT22;10340;53.664;9.908;2022-07-23T04:47:50;16.20;99.90
20364;DHT22;10340;53.664;9.908;2022-07-23T04:50:19;16.10;99.90
20364;DHT22;10340;53.664;9.908;2022-07-23T04:52:47;16.10;99.90
20364;DHT22;10340;53.664;9.908;2022-07-23T04:55:14;16.20;99.90
20364;DHT22;10340;53.664;9.908;2022-07-23T04:57:41;16.20;99.90
20364;DHT22;10340;53.664;9.908;2022-07-23T05:00:09;16.30;99.90
20364;DHT22;10340;53.664;9.908;2022-07-23T05:02:36;16.40;99.90
20364;DHT22;10340;53.664;9.908;2022-07-23T05:05:03;16.40;99.90
20364;DHT22;10340;53.664;9.908;2022-07-23T05:07:32;16.50;99.90
20364;DHT22;10340;53.664;9.908;2022-07-23T05:09:58;16.60;99.90
20364;DHT22;10340;53.664;9.908;2022-07-23T05:12:25;16.60;99.90
20364;DHT22;10340;53.664;9.908;2022-07-23T05:14:52;16.70;99.90
20364;DHT22;10340;53.664;9.908;2022-07-23T05:17:19;16.70;99.90
20364;DHT22;10340;53.664;9.908;2022-07-23T05:19:46;16.70;99.90
20364;DHT22;10340;53.664;9.908;2022-07-23T05:22:13;16.70;99.90
20364;DHT22;10340;53.664;9.908;2022-07-23T05:24:41;16.70;99.90
20364;DHT22;10340;53.664;9.908;2022-07-23T05:27:08;16.70;99.90
20364;DHT22;10340;53.664;9.908;2022-07-23T05:29:35;16.70;99.90
20364;DHT22;10340;53.664;9.908;2022-07-23T05:32:02;16.80;99.90
20364;DHT22;10340;53.664;9.908;2022-07-23T05:34:29;16.80;99.90
20364;DHT22;10340;53.664;9.908;2022-07-23T05:36:56;16.80;99.90
20364;DHT22;10340;53.664;9.908;2022-07-23T05:39:23;16.80;99.90
20364;DHT22;10340;53.664;9.908;2022-07-23T05:41:51;16.90;99.90
20364;DHT22;10340;53.664;9.908;2022-07-23T05:44:18;16.90;99.90
20364;DHT22;10340;53.664;9.908;2022-07-23T05:46:46;17.00;99.90
20364;DHT22;10340;53.664;9.908;2022-07-23T05:49:13;17.10;99.90
20364;DHT22;10340;53.664;9.908;2022-07-23T05:51:40;17.00;99.90
20364;DHT22;10340;53.664;9.908;2022-07-23T05:54:06;17.00;99.90
20364;DHT22;10340;53.664;9.908;2022-07-23T05:56:33;17.00;99.90
20364;DHT22;10340;53.664;9.908;2022-07-23T05:59:01;17.00;99.90
20364;DHT22;10340;53.664;9.908;2022-07-23T06:01:28;17.00;99.90
20364;DHT22;10340;53.664;9.908;2022-07-23T06:03:55;17.00;99.90
20364;DHT22;10340;53.664;9.908;2022-07-23T06:06:22;17.00;99.90
20364;DHT22;10340;53.664;9.908;2022-07-23T06:08:49;17.00;99.90
20364;DHT22;10340;53.664;9.908;2022-07-23T06:11:16;16.90;99.90
20364;DHT22;10340;53.664;9.908;2022-07-23T06:13:43;16.80;99.90
20364;DHT22;10340;53.664;9.908;2022-07-23T06:16:11;16.80;99.90
20364;DHT22;10340;53.664;9.908;2022-07-23T06:18:38;16.70;99.90
20364;DHT22;10340;53.664;9.908;2022-07-23T06:21:05;16.80;99.90
20364;DHT22;10340;53.664;9.908;2022-07-23T06:23:32;16.90;99.90
20364;DHT22;10340;53.664;9.908;2022-07-23T06:25:58;16.90;99.90
20364;DHT22;10340;53.664;9.908;2022-07-23T06:28:25;16.90;99.90
20364;DHT22;10340;53.664;9.908;2022-07-23T06:30:52;16.90;99.90
20364;DHT22;10340;53.664;9.908;2022-07-23T06:33:20;16.90;99.90
20364;DHT22;10340;53.664;9.908;2022-07-23T06:35:47;16.90;99.90
20364;DHT22;10340;53.664;9.908;2022-07-23T06:38:14;17.00;99.90
20364;DHT22;10340;53.664;9.908;2022-07-23T06:40:41;17.00;99.90
20364;DHT22;10340;53.664;9.908;2022-07-23T06:43:08;17.00;99.90
20364;DHT22;10340;53.664;9.908;2022-07-23T06:45:34;17.00;99.90
20364;DHT22;10340;53.664;9.908;2022-07-23T06:48:02;16.90;99.90
20364;DHT22;10340;53.664;9.908;2022-07-23T06:50:30;16.90;99.90
20364;DHT22;10340;53.664;9.908;2022-07-23T06:52:57;17.00;99.90
20364;DHT22;10340;53.664;9.908;2022-07-23T06:55:24;16.90;99.90
20364;DHT22;10340;53.664;9.908;2022-07-23T06:57:51;16.70;99.90
20364;DHT22;10340;53.664;9.908;2022-07-23T07:00:18;16.50;99.90
20364;DHT22;10340;53.664;9.908;2022-07-23T07:02:45;16.30;99.90
20364;DHT22;10340;53.664;9.908;2022-07-23T07:05:12;16.30;99.90
20364;DHT22;10340;53.664;9.908;2022-07-23T07:07:40;16.40;99.90
20364;DHT22;10340;53.664;9.908;2022-07-23T07:10:08;16.50;99.90
20364;DHT22;10340;53.664;9.908;2022-07-23T07:12:35;16.50;99.90
20364;DHT22;10340;53.664;9.908;2022-07-23T07:15:02;16.70;99.90
20364;DHT22;10340;53.664;9.908;2022-07-23T07:17:28;16.90;99.90
20364;DHT22;10340;53.664;9.908;2022-07-23T07:19:56;17.00;99.90
20364;DHT22;10340;53.664;9.908;2022-07-23T07:22:23;17.10;99.90
20364;DHT22;10340;53.664;9.908;2022-07-23T07:24:51;17.10;99.90
20364;DHT22;10340;53.664;9.908;2022-07-23T07:27:18;17.00;99.90
20364;DHT22;10340;53.664;9.908;2022-07-23T07:29:45;17.00;99.90
20364;DHT22;10340;53.664;9.908;2022-07-23T07:32:12;16.90;99.90
20364;DHT22;10340;53.664;9.908;2022-07-23T07:34:39;16.90;99.90
20364;DHT22;10340;53.664;9.908;2022-07-23T07:37:06;16.90;99.90
20364;DHT22;10340;53.664;9.908;2022-07-23T07:39:32;17.00;99.90
20364;DHT22;10340;53.664;9.908;2022-07-23T07:42:01;17.10;99.90
20364;DHT22;10340;53.664;9.908;2022-07-23T07:44:28;17.30;99.90
20364;DHT22;10340;53.664;9.908;2022-07-23T07:46:54;17.30;99.90
20364;DHT22;10340;53.664;9.908;2022-07-23T07:49:21;17.40;99.90
20364;DHT22;10340;53.664;9.908;2022-07-23T07:51:49;17.40;99.90
20364;DHT22;10340;53.664;9.908;2022-07-23T07:54:16;17.60;99.90
20364;DHT22;10340;53.664;9.908;2022-07-23T07:56:43;17.80;99.90
20364;DHT22;10340;53.664;9.908;2022-07-23T07:59:11;17.90;99.90
20364;DHT22;10340;53.664;9.908;2022-07-23T08:01:38;17.70;99.90
20364;DHT22;10340;53.664;9.908;2022-07-23T08:04:05;17.70;99.90
20364;DHT22;10340;53.664;9.908;2022-07-23T08:06:32;18.00;99.90
20364;DHT22;10340;53.664;9.908;2022-07-23T08:08:59;18.00;99.90
20364;DHT22;10340;53.664;9.908;2022-07-23T08:11:26;18.10;99.90
20364;DHT22;10340;53.664;9.908;2022-07-23T08:13:53;18.20;99.90
20364;DHT22;10340;53.664;9.908;2022-07-23T08:16:21;18.30;99.90
20364;DHT22;10340;53.664;9.908;2022-07-23T08:18:48;18.20;99.90
20364;DHT22;10340;53.664;9.908;2022-07-23T08:21:14;18.30;99.90
20364;DHT22;10340;53.664;9.908;2022-07-23T08:23:41;18.30;99.90
20364;DHT22;10340;53.664;9.908;2022-07-23T08:26:08;18.40;99.90
20364;DHT22;10340;53.664;9.908;2022-07-23T08:28:35;18.50;99.90
20364;DHT22;10340;53.664;9.908;2022-07-23T08:31:02;18.50;99.90
20364;DHT22;10340;53.664;9.908;2022-07-23T08:33:32;18.60;99.90
20364;DHT22;10340;53.664;9.908;2022-07-23T08:36:00;18.80;99.90
20364;DHT22;10340;53.664;9.908;2022-07-23T08:38:28;18.80;99.90
20364;DHT22;10340;53.664;9.908;2022-07-23T08:40:55;18.90;99.90
20364;DHT22;10340;53.664;9.908;2022-07-23T08:43:24;19.10;99.90
20364;DHT22;10340;53.664;9.908;2022-07-23T08:45:53;19.10;99.90
20364;DHT22;10340;53.664;9.908;2022-07-23T08:48:23;19.20;99.90
20364;DHT22;10340;53.664;9.908;2022-07-23T08:50:53;19.20;99.90
20364;DHT22;10340;53.664;9.908;2022-07-23T08:53:21;19.30;99.90
20364;DHT22;10340;53.664;9.908;2022-07-23T08:55:50;19.20;99.90
20364;DHT22;10340;53.664;9.908;2022-07-23T08:58:18;19.20;99.90
20364;DHT22;10340;53.664;9.908;2022-07-23T09:00:46;19.20;99.90
20364;DHT22;10340;53.664;9.908;2022-07-23T09:03:16;19.20;99.90
20364;DHT22;10340;53.664;9.908;2022-07-23T09:05:43;19.20;99.90
20364;DHT22;10340;53.664;9.908;2022-07-23T09:08:14;19.20;99.90
20364;DHT22;10340;53.664;9.908;2022-07-23T09:10:48;19.10;99.90
20364;DHT22;10340;53.664;9.908;2022-07-23T09:13:28;19.30;99.90
20364;DHT22;10340;53.664;9.908;2022-07-23T09:15:58;19.40;99.90
20364;DHT22;10340;53.664;9.908;2022-07-23T09:18:29;19.40;99.90
20364;DHT22;10340;53.664;9.908;2022-07-23T09:21:06;19.40;99.90
20364;DHT22;10340;53.664;9.908;2022-07-23T09:23:42;19.50;99.90
20364;DHT22;10340;53.664;9.908;2022-07-23T09:26:34;19.70;99.90
20364;DHT22;10340;53.664;9.908;2022-07-23T09:29:07;19.60;99.90
20364;DHT22;10340;53.664;9.908;2022-07-23T09:31:43;19.60;99.90
20364;DHT22;10340;53.664;9.908;2022-07-23T09:34:12;19.40;99.90
20364;DHT22;10340;53.664;9.908;2022-07-23T09:36:40;19.30;99.90
20364;DHT22;10340;53.664;9.908;2022-07-23T09:39:09;19.20;99.90
20364;DHT22;10340;53.664;9.908;2022-07-23T09:41:38;18.80;99.90
20364;DHT22;10340;53.664;9.908;2022-07-23T09:44:13;18.70;99.90
20364;DHT22;10340;53.664;9.908;2022-07-23T09:46:40;18.50;99.90
20364;DHT22;10340;53.664;9.908;2022-07-23T09:49:17;18.30;99.90
20364;DHT22;10340;53.664;9.908;2022-07-23T09:51:50;17.90;99.90
20364;DHT22;10340;53.664;9.908;2022-07-23T09:54:30;17.70;99.90
20364;DHT22;10340;53.664;9.908;2022-07-23T09:56:58;17.60;99.90
20364;DHT22;10340;53.664;9.908;2022-07-23T09:59:27;17.70;99.90
20364;DHT22;10340;53.664;9.908;2022-07-23T10:01:55;17.80;99.90
20364;DHT22;10340;53.664;9.908;2022-07-23T10:04:27;17.90;99.90
20364;DHT22;10340;53.664;9.908;2022-07-23T10:06:55;17.90;99.90
20364;DHT22;10340;53.664;9.908;2022-07-23T10:09:26;17.90;99.90
20364;DHT22;10340;53.664;9.908;2022-07-23T10:11:59;18.10;99.90
20364;DHT22;10340;53.664;9.908;2022-07-23T10:14:39;18.10;99.90
20364;DHT22;10340;53.664;9.908;2022-07-23T10:17:07;18.30;99.90
20364;DHT22;10340;53.664;9.908;2022-07-23T10:19:34;18.40;99.90
20364;DHT22;10340;53.664;9.908;2022-07-23T10:22:03;18.60;99.90
20364;DHT22;10340;53.664;9.908;2022-07-23T10:24:45;18.80;99.90
20364;DHT22;10340;53.664;9.908;2022-07-23T10:27:48;19.00;99.90
20364;DHT22;10340;53.664;9.908;2022-07-23T10:30:22;18.90;99.90
20364;DHT22;10340;53.664;9.908;2022-07-23T10:33:03;18.80;99.90
20364;DHT22;10340;53.664;9.908;2022-07-23T10:35:37;18.60;99.90
20364;DHT22;10340;53.664;9.908;2022-07-23T10:38:13;18.30;99.90
20364;DHT22;10340;53.664;9.908;2022-07-23T10:40:58;18.20;99.90
20364;DHT22;10340;53.664;9.908;2022-07-23T10:43:26;18.20;99.90
20364;DHT22;10340;53.664;9.908;2022-07-23T10:45:53;18.20;99.90
20364;DHT22;10340;53.664;9.908;2022-07-23T10:48:21;18.20;99.90
20364;DHT22;10340;53.664;9.908;2022-07-23T10:51:08;18.40;99.90
20364;DHT22;10340;53.664;9.908;2022-07-23T10:53:56;18.70;99.90
20364;DHT22;10340;53.664;9.908;2022-07-23T10:57:04;18.90;99.90
20364;DHT22;10340;53.664;9.908;2022-07-23T10:59:37;19.00;99.90
20364;DHT22;10340;53.664;9.908;2022-07-23T11:02:29;19.10;99.90
20364;DHT22;10340;53.664;9.908;2022-07-23T11:05:00;19.20;99.90
20364;DHT22;10340;53.664;9.908;2022-07-23T11:07:28;19.30;99.90
20364;DHT22;10340;53.664;9.908;2022-07-23T11:09:55;19.30;99.90
20364;DHT22;10340;53.664;9.908;2022-07-23T11:12:39;19.40;99.90
20364;DHT22;10340;53.664;9.908;2022-07-23T11:15:07;19.50;99.90
20364;DHT22;10340;53.664;9.908;2022-07-23T11:17:36;19.70;99.90
20364;DHT22;10340;53.664;9.908;2022-07-23T11:20:22;19.80;99.90
20364;DHT22;10340;53.664;9.908;2022-07-23T11:22:51;19.70;99.90
20364;DHT22;10340;53.664;9.908;2022-07-23T11:25:36;19.60;99.90
20364;DHT22;10340;53.664;9.908;2022-07-23T11:28:14;19.50;99.90
20364;DHT22;10340;53.664;9.908;2022-07-23T11:30:43;19.50;99.90
20364;DHT22;10340;53.664;9.908;2022-07-23T11:33:20;19.60;99.90
20364;DHT22;10340;53.664;9.908;2022-07-23T11:35:51;19.70;99.90
20364;DHT22;10340;53.664;9.908;2022-07-23T11:38:26;19.70;99.90
20364;DHT22;10340;53.664;9.908;2022-07-23T11:40:54;19.70;99.90
20364;DHT22;10340;53.664;9.908;2022-07-23T11:43:23;19.90;99.90
20364;DHT22;10340;53.664;9.908;2022-07-23T11:45:52;19.90;99.90
20364;DHT22;10340;53.664;9.908;2022-07-23T11:48:21;19.80;99.90
20364;DHT22;10340;53.664;9.908;2022-07-23T11:50:48;19.60;99.90
20364;DHT22;10340;53.664;9.908;2022-07-23T11:53:21;19.60;99.90
20364;DHT22;10340;53.664;9.908;2022-07-23T11:55:48;19.60;99.90
20364;DHT22;10340;53.664;9.908;2022-07-23T11:58:15;19.60;99.90
20364;DHT22;10340;53.664;9.908;2022-07-23T12:00:44;19.70;99.90
20364;DHT22;10340;53.664;9.908;2022-07-23T12:03:11;19.60;99.90
20364;DHT22;10340;53.664;9.908;2022-07-23T12:05:38;19.70;99.90
20364;DHT22;10340;53.664;9.908;2022-07-23T12:08:07;19.70;99.90
20364;DHT22;10340;53.664;9.908;2022-07-23T12:10:35;19.70;99.90
20364;DHT22;10340;53.664;9.908;2022-07-23T12:13:04;19.70;99.90
20364;DHT22;10340;53.664;9.908;2022-07-23T12:15:34;19.60;99.90
20364;DHT22;10340;53.664;9.908;2022-07-23T12:18:06;19.50;99.90
20364;DHT22;10340;53.664;9.908;2022-07-23T12:20:35;19.50;99.90
20364;DHT22;10340;53.664;9.908;2022-07-23T12:23:05;19.70;99.90
20364;DHT22;10340;53.664;9.908;2022-07-23T12:25:34;19.70;99.90
20364;DHT22;10340;53.664;9.908;2022-07-23T12:28:03;19.80;99.90
20364;DHT22;10340;53.664;9.908;2022-07-23T12:30:32;19.80;99.90
20364;DHT22;10340;53.664;9.908;2022-07-23T12:32:59;20.00;99.90
20364;DHT22;10340;53.664;9.908;2022-07-23T12:35:34;20.10;99.90
20364;DHT22;10340;53.664;9.908;2022-07-23T12:38:03;20.20;99.90
20364;DHT22;10340;53.664;9.908;2022-07-23T12:40:32;20.30;99.90
20364;DHT22;10340;53.664;9.908;2022-07-23T12:43:03;20.30;99.90
20364;DHT22;10340;53.664;9.908;2022-07-23T12:45:43;20.40;99.90
20364;DHT22;10340;53.664;9.908;2022-07-23T12:48:17;20.50;99.90
20364;DHT22;10340;53.664;9.908;2022-07-23T12:50:53;20.70;99.90
20364;DHT22;10340;53.664;9.908;2022-07-23T12:53:22;20.60;99.90
20364;DHT22;10340;53.664;9.908;2022-07-23T12:55:51;20.50;99.90
20364;DHT22;10340;53.664;9.908;2022-07-23T12:58:23;20.30;99.90
20364;DHT22;10340;53.664;9.908;2022-07-23T13:00:58;20.20;99.90
20364;DHT22;10340;53.664;9.908;2022-07-23T13:03:27;20.30;99.90
20364;DHT22;10340;53.664;9.908;2022-07-23T13:05:58;20.30;99.90
20364;DHT22;10340;53.664;9.908;2022-07-23T13:08:27;20.50;99.90
20364;DHT22;10340;53.664;9.908;2022-07-23T13:10:55;20.40;99.90
20364;DHT22;10340;53.664;9.908;2022-07-23T13:13:24;20.40;99.90
20364;DHT22;10340;53.664;9.908;2022-07-23T13:15:52;20.40;99.90
20364;DHT22;10340;53.664;9.908;2022-07-23T13:18:20;20.50;99.90
20364;DHT22;10340;53.664;9.908;2022-07-23T13:20:48;20.40;99.90
20364;DHT22;10340;53.664;9.908;2022-07-23T13:23:17;20.30;99.90
20364;DHT22;10340;53.664;9.908;2022-07-23T13:25:44;20.30;99.90
20364;DHT22;10340;53.664;9.908;2022-07-23T13:28:11;20.20;99.90
20364;DHT22;10340;53.664;9.908;2022-07-23T13:30:39;20.10;99.90
20364;DHT22;10340;53.664;9.908;2022-07-23T13:33:06;19.90;99.90
20364;DHT22;10340;53.664;9.908;2022-07-23T13:35:34;20.00;99.90
20364;DHT22;10340;53.664;9.908;2022-07-23T13:38:01;20.00;99.90
20364;DHT22;10340;53.664;9.908;2022-07-23T13:40:29;20.00;99.90
20364;DHT22;10340;53.664;9.908;2022-07-23T13:42:59;19.80;99.90
20364;DHT22;10340;53.664;9.908;2022-07-23T13:45:26;19.80;99.90
20364;DHT22;10340;53.664;9.908;2022-07-23T13:47:53;19.80;99.90
20364;DHT22;10340;53.664;9.908;2022-07-23T13:50:20;19.90;99.90
20364;DHT22;10340;53.664;9.908;2022-07-23T13:52:47;19.90;99.90
20364;DHT22;10340;53.664;9.908;2022-07-23T13:55:14;19.90;99.90
20364;DHT22;10340;53.664;9.908;2022-07-23T13:57:42;19.90;99.90
20364;DHT22;10340;53.664;9.908;2022-07-23T14:00:10;20.00;99.90
20364;DHT22;10340;53.664;9.908;2022-07-23T14:02:38;20.20;99.90
20364;DHT22;10340;53.664;9.908;2022-07-23T14:05:07;20.30;99.90
20364;DHT22;10340;53.664;9.908;2022-07-23T14:07:35;20.30;99.90
20364;DHT22;10340;53.664;9.908;2022-07-23T14:10:03;20.30;99.90
20364;DHT22;10340;53.664;9.908;2022-07-23T14:12:31;20.30;99.90
20364;DHT22;10340;53.664;9.908;2022-07-23T14:14:59;20.40;99.90
20364;DHT22;10340;53.664;9.908;2022-07-23T14:17:26;20.50;99.90
20364;DHT22;10340;53.664;9.908;2022-07-23T14:19:53;20.70;99.90
20364;DHT22;10340;53.664;9.908;2022-07-23T14:22:20;20.70;99.90
20364;DHT22;10340;53.664;9.908;2022-07-23T14:24:47;20.70;99.90
20364;DHT22;10340;53.664;9.908;2022-07-23T14:27:14;20.40;99.90
20364;DHT22;10340;53.664;9.908;2022-07-23T14:29:41;20.20;99.90
20364;DHT22;10340;53.664;9.908;2022-07-23T14:32:10;20.10;99.90
20364;DHT22;10340;53.664;9.908;2022-07-23T14:34:37;20.00;99.90
20364;DHT22;10340;53.664;9.908;2022-07-23T14:37:04;20.00;99.90
20364;DHT22;10340;53.664;9.908;2022-07-23T14:39:30;20.00;99.90
20364;DHT22;10340;53.664;9.908;2022-07-23T14:41:58;20.30;99.90
20364;DHT22;10340;53.664;9.908;2022-07-23T14:44:24;20.30;99.90
20364;DHT22;10340;53.664;9.908;2022-07-23T14:46:53;20.10;99.90
20364;DHT22;10340;53.664;9.908;2022-07-23T14:49:21;20.00;99.90
20364;DHT22;10340;53.664;9.908;2022-07-23T14:51:48;19.80;99.90
20364;DHT22;10340;53.664;9.908;2022-07-23T14:54:15;19.60;99.90
20364;DHT22;10340;53.664;9.908;2022-07-23T14:56:42;19.60;99.90
20364;DHT22;10340;53.664;9.908;2022-07-23T14:59:09;19.70;99.90
20364;DHT22;10340;53.664;9.908;2022-07-23T15:01:36;19.80;99.90
20364;DHT22;10340;53.664;9.908;2022-07-23T15:04:04;19.80;99.90
20364;DHT22;10340;53.664;9.908;2022-07-23T15:06:32;19.80;99.90
20364;DHT22;10340;53.664;9.908;2022-07-23T15:08:59;19.70;99.90
20364;DHT22;10340;53.664;9.908;2022-07-23T15:11:26;19.60;99.90
20364;DHT22;10340;53.664;9.908;2022-07-23T15:13:54;19.60;99.90
20364;DHT22;10340;53.664;9.908;2022-07-23T15:16:21;19.60;99.90
20364;DHT22;10340;53.664;9.908;2022-07-23T15:18:48;19.40;99.90
20364;DHT22;10340;53.664;9.908;2022-07-23T15:21:15;19.30;99.90
20364;DHT22;10340;53.664;9.908;2022-07-23T15:23:43;19.20;99.90
20364;DHT22;10340;53.664;9.908;2022-07-23T15:26:10;19.30;99.90
20364;DHT22;10340;53.664;9.908;2022-07-23T15:28:37;19.50;99.90
20364;DHT22;10340;53.664;9.908;2022-07-23T15:31:04;19.60;99.90
20364;DHT22;10340;53.664;9.908;2022-07-23T15:33:31;19.70;99.90
20364;DHT22;10340;53.664;9.908;2022-07-23T15:35:58;19.80;99.90
20364;DHT22;10340;53.664;9.908;2022-07-23T15:38:25;19.70;99.90